Wetterdaten: Woche 14.02.22 - 20.02.22 (KW7)
Datum Zeit Temp. Aussen Temp. o. S. Temp +5cm Feuchte Auss Luftdruck Regen Sonnenschein Regendauer Solar Windben Empfang
14.02.2022 00:00 7,7 C 7,0 C 3,3 C 77 % 1003,5 hPa 0,0 l/m 0,00 h 0,00 h 0 W/m 23,0 km/h (4 Bft) 97,20 %
14.02.2022 01:00 7,8 C 7,2 C 3,3 C 78 % 1002,7 hPa 0,0 l/m 0,00 h 0,00 h 0 W/m 24,5 km/h (4 Bft) 98,58 %
14.02.2022 02:00 8,0 C 7,2 C 3,3 C 79 % 1001,9 hPa 0,0 l/m 0,00 h 0,00 h 0 W/m 25,4 km/h (4 Bft) 96,82 %
14.02.2022 03:00 8,1 C 7,2 C 3,6 C 79 % 1001,0 hPa 0,0 l/m 0,00 h 0,00 h 0 W/m 25,6 km/h (4 Bft) 97,70 %
14.02.2022 04:00 8,3 C 7,7 C 3,9 C 78 % 1000,3 hPa 0,0 l/m 0,00 h 0,00 h 0 W/m 26,7 km/h (4 Bft) 97,28 %
14.02.2022 05:00 8,3 C 7,5 C 3,9 C 79 % 999,8 hPa 0,0 l/m 0,00 h 0,00 h 0 W/m 26,2 km/h (4 Bft) 98,03 %
14.02.2022 06:00 8,6 C 7,9 C 4,2 C 79 % 999,6 hPa 0,0 l/m 0,00 h 0,00 h 0 W/m 23,8 km/h (4 Bft) 97,23 %
14.02.2022 07:00 8,9 C 8,2 C 4,5 C 80 % 999,7 hPa 0,0 l/m 0,00 h 0,00 h 4 W/m 19,1 km/h (3 Bft) 98,56 %
14.02.2022 08:00 10,0 C 9,4 C 5,5 C 80 % 1000,0 hPa 0,0 l/m 0,00 h 0,00 h 25 W/m 21,8 km/h (4 Bft) 96,56 %
14.02.2022 09:00 10,8 C 10,4 C 6,5 C 80 % 1000,1 hPa 0,0 l/m 0,03 h 0,00 h 89 W/m 28,9 km/h (5 Bft) 98,50 %
14.02.2022 10:00 11,1 C 10,9 C 6,9 C 82 % 1000,5 hPa 0,0 l/m 0,13 h 0,00 h 127 W/m 35,6 km/h (5 Bft) 96,38 %
14.02.2022 11:00 10,8 C 12,3 C 7,7 C 81 % 1001,4 hPa 0,0 l/m 0,43 h 0,00 h 225 W/m 27,6 km/h (4 Bft) 98,49 %
14.02.2022 12:00 11,4 C 12,5 C 8,3 C 76 % 1002,3 hPa 0,0 l/m 0,40 h 0,00 h 237 W/m 31,5 km/h (5 Bft) 96,39 %
14.02.2022 13:00 10,6 C 10,6 C 6,9 C 77 % 1002,5 hPa 0,0 l/m 0,13 h 0,00 h 141 W/m 29,5 km/h (5 Bft) 97,60 %
14.02.2022 14:00 11,0 C 11,8 C 7,2 C 73 % 1002,6 hPa 0,0 l/m 0,67 h 0,00 h 239 W/m 30,1 km/h (5 Bft) 98,57 %
14.02.2022 15:00 10,9 C 11,0 C 6,7 C 71 % 1002,9 hPa 0,0 l/m 0,63 h 0,00 h 151 W/m 29,3 km/h (5 Bft) 95,94 %
14.02.2022 16:00 10,9 C 10,6 C 6,6 C 72 % 1003,3 hPa 0,0 l/m 0,77 h 0,00 h 108 W/m 25,5 km/h (4 Bft) 97,79 %
14.02.2022 17:00 10,4 C 9,6 C 5,9 C 74 % 1003,7 hPa 0,0 l/m 0,50 h 0,00 h 30 W/m 20,0 km/h (4 Bft) 96,99 %
14.02.2022 18:00 9,4 C 8,3 C 4,8 C 74 % 1004,4 hPa 0,0 l/m 0,00 h 0,00 h 0 W/m 14,4 km/h (3 Bft) 96,66 %
14.02.2022 19:00 8,4 C 7,3 C 3,8 C 78 % 1005,0 hPa 0,0 l/m 0,00 h 0,00 h 0 W/m 13,4 km/h (3 Bft) 98,13 %
14.02.2022 20:00 7,4 C 6,3 C 3,0 C 81 % 1005,5 hPa 0,0 l/m 0,00 h 0,00 h 0 W/m 11,1 km/h (2 Bft) 96,78 %
14.02.2022 21:00 6,9 C 6,1 C 2,8 C 83 % 1005,9 hPa 0,0 l/m 0,00 h 0,00 h 0 W/m 16,2 km/h (3 Bft) 98,72 %
14.02.2022 22:00 6,3 C 5,3 C 2,1 C 85 % 1006,1 hPa 0,0 l/m 0,00 h 0,00 h 0 W/m 10,4 km/h (2 Bft) 94,11 %
14.02.2022 23:00 5,9 C 5,2 C 2,1 C 87 % 1006,6 hPa 0,0 l/m 0,00 h 0,00 h 0 W/m 11,7 km/h (2 Bft) 99,38 %
15.02.2022 00:00 6,6 C 6,0 C 2,6 C 87 % 1007,0 hPa 0,0 l/m 0,00 h 0,00 h 0 W/m 15,6 km/h (3 Bft) 94,89 %
15.02.2022 01:00 6,6 C 5,8 C 2,4 C 88 % 1007,4 hPa 0,0 l/m 0,00 h 0,00 h 0 W/m 9,0 km/h (2 Bft) 95,29 %
15.02.2022 02:00 6,5 C 5,9 C 2,7 C 89 % 1007,8 hPa 0,0 l/m 0,00 h 0,00 h 0 W/m 8,4 km/h (2 Bft) 98,36 %
15.02.2022 03:00 6,4 C 5,6 C 2,5 C 90 % 1008,2 hPa 0,0 l/m 0,00 h 0,00 h 0 W/m 8,8 km/h (2 Bft) 95,70 %
15.02.2022 04:00 6,3 C 5,6 C 2,6 C 90 % 1008,7 hPa 0,0 l/m 0,00 h 0,00 h 0 W/m 8,1 km/h (2 Bft) 96,93 %
15.02.2022 05:00 6,0 C 5,1 C 2,2 C 92 % 1009,4 hPa 0,0 l/m 0,00 h 0,00 h 0 W/m 6,4 km/h (2 Bft) 98,58 %
15.02.2022 06:00 5,7 C 5,0 C 1,9 C 93 % 1010,0 hPa 0,0 l/m 0,00 h 0,03 h 0 W/m 7,8 km/h (2 Bft) 97,90 %
15.02.2022 07:00 5,6 C 5,0 C 1,8 C 94 % 1010,5 hPa 0,0 l/m 0,00 h 0,00 h 5 W/m 10,3 km/h (2 Bft) 94,92 %
15.02.2022 08:00 5,8 C 5,4 C 2,4 C 94 % 1011,1 hPa 0,0 l/m 0,00 h 0,00 h 22 W/m 11,4 km/h (2 Bft) 97,23 %
15.02.2022 09:00 6,3 C 6,0 C 3,1 C 93 % 1011,8 hPa 0,0 l/m 0,03 h 0,00 h 64 W/m 13,2 km/h (3 Bft) 98,34 %
15.02.2022 10:00 6,6 C 6,4 C 3,4 C 91 % 1012,3 hPa 0,0 l/m 0,00 h 0,00 h 81 W/m 13,3 km/h (3 Bft) 97,44 %
15.02.2022 11:00 7,2 C 8,0 C 4,6 C 87 % 1012,8 hPa 0,0 l/m 0,13 h 0,00 h 177 W/m 18,0 km/h (3 Bft) 95,48 %
15.02.2022 12:00 8,3 C 10,5 C 6,0 C 77 % 1012,7 hPa 0,0 l/m 0,43 h 0,00 h 250 W/m 20,0 km/h (4 Bft) 95,97 %
15.02.2022 13:00 9,4 C 15,6 C 5,8 C 70 % 1012,2 hPa 0,0 l/m 0,93 h 0,00 h 477 W/m 23,8 km/h (4 Bft) 98,22 %
15.02.2022 14:00 9,8 C 13,3 C 5,7 C 66 % 1011,8 hPa 0,0 l/m 0,93 h 0,00 h 381 W/m 24,7 km/h (4 Bft) 98,08 %
15.02.2022 15:00 9,4 C 9,9 C 5,3 C 66 % 1011,2 hPa 0,0 l/m 0,63 h 0,00 h 169 W/m 29,1 km/h (5 Bft) 95,94 %
15.02.2022 16:00 9,3 C 8,9 C 5,0 C 68 % 1010,1 hPa 0,0 l/m 0,30 h 0,00 h 85 W/m 28,4 km/h (4 Bft) 98,00 %
15.02.2022 17:00 9,0 C 8,3 C 4,4 C 70 % 1009,4 hPa 0,0 l/m 0,00 h 0,00 h 19 W/m 27,6 km/h (4 Bft) 98,51 %
15.02.2022 18:00 8,9 C 8,3 C 4,4 C 72 % 1008,8 hPa 0,0 l/m 0,00 h 0,00 h 0 W/m 27,5 km/h (4 Bft) 95,64 %
15.02.2022 19:00 9,1 C 8,2 C 4,4 C 75 % 1008,6 hPa 0,0 l/m 0,00 h 0,20 h 0 W/m 30,6 km/h (5 Bft) 99,65 %
15.02.2022 20:00 8,4 C 7,2 C 3,2 C 84 % 1008,3 hPa 0,6 l/m 0,00 h 1,00 h 0 W/m 34,3 km/h (5 Bft) 96,16 %
15.02.2022 21:00 7,5 C 6,1 C 2,8 C 92 % 1007,9 hPa 1,6 l/m 0,00 h 0,97 h 0 W/m 30,3 km/h (5 Bft) 96,19 %
15.02.2022 22:00 7,5 C 6,5 C 3,1 C 94 % 1007,0 hPa 0,8 l/m 0,00 h 1,00 h 0 W/m 34,8 km/h (5 Bft) 97,58 %
15.02.2022 23:00 7,7 C 6,7 C 3,3 C 94 % 1006,2 hPa 0,4 l/m 0,00 h 1,00 h 0 W/m 35,6 km/h (5 Bft) 97,87 %
16.02.2022 00:00 7,8 C 6,7 C 3,4 C 94 % 1005,9 hPa 0,4 l/m 0,00 h 1,00 h 0 W/m 32,4 km/h (5 Bft) 95,33 %
16.02.2022 01:00 8,0 C 7,1 C 3,9 C 94 % 1005,1 hPa 0,0 l/m 0,00 h 1,00 h 0 W/m 29,0 km/h (5 Bft) 98,29 %
16.02.2022 02:00 8,2 C 7,2 C 3,9 C 94 % 1004,3 hPa 0,2 l/m 0,00 h 1,00 h 0 W/m 27,7 km/h (4 Bft) 97,87 %
16.02.2022 03:00 8,2 C 7,2 C 4,4 C 95 % 1003,4 hPa 0,2 l/m 0,00 h 0,97 h 0 W/m 29,0 km/h (5 Bft) 96,25 %
16.02.2022 04:00 8,5 C 7,8 C 4,4 C 94 % 1002,6 hPa 0,0 l/m 0,00 h 0,13 h 0 W/m 31,0 km/h (5 Bft) 97,23 %
16.02.2022 05:00 8,7 C 7,8 C 4,5 C 93 % 1001,9 hPa 0,2 l/m 0,00 h 0,80 h 0 W/m 27,7 km/h (4 Bft) 99,23 %
16.02.2022 06:00 8,8 C 8,0 C 5,0 C 94 % 1000,5 hPa 0,0 l/m 0,00 h 0,23 h 0 W/m 31,8 km/h (5 Bft) 95,85 %
16.02.2022 07:00 9,3 C 8,4 C 5,0 C 92 % 999,3 hPa 0,2 l/m 0,00 h 0,37 h 0 W/m 32,3 km/h (5 Bft) 98,09 %
16.02.2022 08:00 9,5 C 8,7 C 5,5 C 94 % 998,5 hPa 0,2 l/m 0,00 h 0,63 h 11 W/m 33,8 km/h (5 Bft) 98,93 %
16.02.2022 09:00 9,9 C 9,1 C 6,1 C 94 % 998,3 hPa 0,2 l/m 0,00 h 0,67 h 36 W/m 35,8 km/h (5 Bft) 95,16 %
16.02.2022 10:00 10,1 C 9,4 C 6,8 C 96 % 998,6 hPa 0,0 l/m 0,00 h 1,00 h 58 W/m 31,1 km/h (5 Bft) 99,22 %
16.02.2022 11:00 10,6 C 9,9 C 7,4 C 97 % 998,8 hPa 0,0 l/m 0,00 h 0,60 h 92 W/m 26,1 km/h (4 Bft) 97,95 %
16.02.2022 12:00 11,3 C 10,9 C 8,4 C 98 % 998,4 hPa 0,0 l/m 0,00 h 0,23 h 119 W/m 26,1 km/h (4 Bft) 96,09 %
16.02.2022 13:00 12,1 C 11,9 C 9,2 C 96 % 997,8 hPa 0,0 l/m 0,00 h 0,10 h 123 W/m 29,5 km/h (5 Bft) 99,13 %
16.02.2022 14:00 12,5 C 12,0 C 9,3 C 93 % 997,7 hPa 0,0 l/m 0,00 h 0,00 h 51 W/m 35,4 km/h (5 Bft) 99,34 %
16.02.2022 15:00 12,6 C 12,2 C 9,4 C 90 % 997,6 hPa 0,0 l/m 0,00 h 0,00 h 53 W/m 30,9 km/h (5 Bft) 98,39 %
16.02.2022 16:00 12,8 C 12,2 C 9,4 C 87 % 997,3 hPa 0,0 l/m 0,00 h 0,00 h 37 W/m 30,8 km/h (5 Bft) 98,17 %
16.02.2022 17:00 12,7 C 11,8 C 8,7 C 87 % 996,9 hPa 0,0 l/m 0,00 h 0,75 h 15 W/m 29,0 km/h (5 Bft) 98,32 %
16.02.2022 18:00 11,7 C 10,6 C 7,8 C 95 % 995,9 hPa 0,8 l/m 0,00 h 1,00 h 0 W/m 39,4 km/h (6 Bft) 97,08 %
16.02.2022 19:00 11,9 C 10,8 C 8,4 C 97 % 995,1 hPa 1,0 l/m 0,00 h 1,00 h 0 W/m 42,6 km/h (6 Bft) 99,85 %
16.02.2022 20:00 12,5 C 11,3 C 9,0 C 97 % 994,1 hPa 1,0 l/m 0,00 h 1,05 h 0 W/m 44,7 km/h (6 Bft) 95,98 %
16.02.2022 21:00 12,9 C 11,6 C 9,4 C 96 % 993,5 hPa 0,8 l/m 0,00 h 0,97 h 0 W/m 38,1 km/h (5 Bft) 98,58 %
16.02.2022 22:00 13,0 C 11,8 C 9,4 C 96 % 993,6 hPa 0,2 l/m 0,00 h 0,97 h 0 W/m 39,2 km/h (6 Bft) 98,65 %
16.02.2022 23:00 12,8 C 11,7 C 9,4 C 95 % 993,9 hPa 0,6 l/m 0,00 h 0,90 h 0 W/m 38,2 km/h (5 Bft) 95,37 %
17.02.2022 00:00 12,8 C 11,8 C 9,0 C 92 % 994,2 hPa 0,0 l/m 0,00 h 0,00 h 0 W/m 32,5 km/h (5 Bft) 99,46 %
17.02.2022 01:00 12,3 C 11,2 C 8,5 C 93 % 993,8 hPa 1,0 l/m 0,00 h 0,90 h 0 W/m 28,6 km/h (4 Bft) 96,94 %
17.02.2022 02:00 11,6 C 10,3 C 8,1 C 94 % 994,1 hPa 1,6 l/m 0,00 h 0,73 h 0 W/m 28,2 km/h (4 Bft) 97,23 %
17.02.2022 03:00 10,9 C 9,7 C 7,2 C 92 % 995,4 hPa 1,0 l/m 0,00 h 0,63 h 0 W/m 33,5 km/h (5 Bft) 96,49 %
17.02.2022 04:00 10,5 C 9,7 C 6,0 C 85 % 997,1 hPa 0,0 l/m 0,00 h 0,00 h 0 W/m 37,0 km/h (5 Bft) 98,01 %
17.02.2022 05:00 10,6 C 9,8 C 6,4 C 78 % 998,2 hPa 0,0 l/m 0,00 h 0,07 h 0 W/m 35,6 km/h (5 Bft) 97,37 %
17.02.2022 06:00 10,2 C 9,5 C 6,1 C 78 % 999,4 hPa 0,0 l/m 0,00 h 0,17 h 0 W/m 32,7 km/h (5 Bft) 97,64 %
17.02.2022 07:00 10,1 C 9,4 C 6,1 C 74 % 1000,6 hPa 0,0 l/m 0,00 h 0,00 h 4 W/m 37,1 km/h (5 Bft) 98,01 %
17.02.2022 08:00 9,9 C 9,3 C 6,0 C 73 % 1002,1 hPa 0,0 l/m 0,03 h 0,00 h 34 W/m 38,0 km/h (5 Bft) 97,58 %
17.02.2022 09:00 9,9 C 9,5 C 6,0 C 72 % 1003,4 hPa 0,0 l/m 0,17 h 0,00 h 93 W/m 34,0 km/h (5 Bft) 95,11 %
17.02.2022 10:00 10,1 C 10,8 C 6,2 C 69 % 1004,6 hPa 0,0 l/m 0,33 h 0,00 h 186 W/m 34,8 km/h (5 Bft) 99,86 %
17.02.2022 11:00 10,7 C 12,5 C 7,8 C 66 % 1005,8 hPa 0,0 l/m 0,77 h 0,00 h 294 W/m 35,6 km/h (5 Bft) 96,38 %
17.02.2022 12:00 11,1 C 12,0 C 7,8 C 62 % 1006,6 hPa 0,0 l/m 0,23 h 0,00 h 187 W/m 36,9 km/h (5 Bft) 98,31 %
17.02.2022 13:00 10,5 C 11,2 C 6,4 C 64 % 1007,1 hPa 0,0 l/m 0,27 h 0,00 h 189 W/m 28,6 km/h (4 Bft) 97,01 %
17.02.2022 14:00 9,3 C 10,0 C 5,0 C 75 % 1007,4 hPa 0,2 l/m 0,33 h 0,47 h 178 W/m 28,7 km/h (4 Bft) 98,05 %
17.02.2022 15:00 10,5 C 12,3 C 6,2 C 69 % 1008,1 hPa 0,0 l/m 1,00 h 0,00 h 340 W/m 31,6 km/h (5 Bft) 97,48 %
17.02.2022 16:00 10,0 C 9,5 C 5,6 C 64 % 1009,4 hPa 0,0 l/m 0,40 h 0,00 h 102 W/m 36,2 km/h (5 Bft) 96,30 %
17.02.2022 17:00 8,9 C 8,2 C 4,6 C 68 % 1010,4 hPa 0,0 l/m 0,00 h 0,00 h 24 W/m 28,7 km/h (4 Bft) 98,71 %
17.02.2022 18:00 8,4 C 7,7 C 4,0 C 67 % 1011,3 hPa 0,0 l/m 0,00 h 0,00 h 0 W/m 19,7 km/h (3 Bft) 96,44 %
17.02.2022 19:00 7,9 C 7,0 C 3,4 C 67 % 1011,8 hPa 0,0 l/m 0,00 h 0,00 h 0 W/m 6,6 km/h (2 Bft) 96,56 %
17.02.2022 20:00 7,5 C 6,5 C 3,0 C 69 % 1011,5 hPa 0,0 l/m 0,00 h 0,00 h 0 W/m 6,3 km/h (2 Bft) 98,50 %
17.02.2022 21:00 7,9 C 7,1 C 3,5 C 73 % 1011,3 hPa 0,0 l/m 0,00 h 0,00 h 0 W/m 16,4 km/h (3 Bft) 97,22 %
17.02.2022 22:00 7,7 C 6,7 C 3,3 C 80 % 1011,7 hPa 0,0 l/m 0,00 h 0,00 h 0 W/m 20,2 km/h (4 Bft) 96,15 %
17.02.2022 23:00 7,4 C 6,5 C 3,0 C 85 % 1011,9 hPa 0,0 l/m 0,00 h 0,00 h 0 W/m 16,1 km/h (3 Bft) 96,05 %
18.02.2022 00:00 7,1 C 6,1 C 2,8 C 89 % 1012,0 hPa 0,0 l/m 0,00 h 0,00 h 0 W/m 14,9 km/h (3 Bft) 99,68 %
18.02.2022 01:00 7,0 C 6,1 C 2,9 C 91 % 1012,0 hPa 0,0 l/m 0,00 h 0,00 h 0 W/m 13,5 km/h (3 Bft) 96,23 %
18.02.2022 02:00 7,1 C 6,4 C 3,3 C 90 % 1011,4 hPa 0,0 l/m 0,00 h 0,00 h 0 W/m 12,9 km/h (3 Bft) 98,16 %
18.02.2022 03:00 7,4 C 6,7 C 3,3 C 90 % 1010,6 hPa 0,0 l/m 0,00 h 0,00 h 0 W/m 14,5 km/h (3 Bft) 96,88 %
18.02.2022 04:00 7,6 C 6,7 C 3,7 C 90 % 1009,3 hPa 0,0 l/m 0,00 h 0,00 h 0 W/m 14,6 km/h (3 Bft) 96,10 %
18.02.2022 05:00 7,4 C 6,6 C 3,3 C 89 % 1008,2 hPa 0,0 l/m 0,00 h 0,00 h 0 W/m 10,1 km/h (2 Bft) 98,29 %
18.02.2022 06:00 7,2 C 6,6 C 3,3 C 90 % 1006,4 hPa 0,0 l/m 0,00 h 0,03 h 0 W/m 16,0 km/h (3 Bft) 98,98 %
18.02.2022 07:00 7,2 C 6,4 C 3,0 C 90 % 1004,8 hPa 0,4 l/m 0,00 h 0,47 h 0 W/m 17,3 km/h (3 Bft) 95,30 %
18.02.2022 08:00 7,0 C 6,5 C 2,9 C 93 % 1003,0 hPa 0,0 l/m 0,00 h 0,00 h 9 W/m 20,7 km/h (4 Bft) 98,10 %
18.02.2022 09:00 7,8 C 7,5 C 3,9 C 93 % 1001,5 hPa 0,0 l/m 0,00 h 0,27 h 24 W/m 14,6 km/h (3 Bft) 97,21 %
18.02.2022 10:00 10,0 C 9,8 C 6,3 C 93 % 1000,2 hPa 0,0 l/m 0,00 h 0,00 h 39 W/m 22,4 km/h (4 Bft) 96,03 %
18.02.2022 11:00 11,9 C 11,4 C 7,9 C 88 % 998,9 hPa 0,0 l/m 0,00 h 0,00 h 47 W/m 38,2 km/h (5 Bft) 97,65 %
18.02.2022 12:00 12,6 C 12,0 C 8,5 C 86 % 997,2 hPa 0,0 l/m 0,00 h 0,00 h 106 W/m 40,1 km/h (6 Bft) 96,81 %
18.02.2022 13:00 13,1 C 12,8 C 9,2 C 84 % 995,5 hPa 0,0 l/m 0,10 h 0,17 h 162 W/m 48,4 km/h (6 Bft) 96,60 %
18.02.2022 14:00 13,1 C 12,8 C 8,9 C 85 % 993,7 hPa 0,0 l/m 0,27 h 0,77 h 160 W/m 51,1 km/h (7 Bft) 98,58 %
18.02.2022 15:00 10,7 C 9,4 C 5,3 C 84 % 993,9 hPa 1,4 l/m 0,00 h 0,57 h 49 W/m 46,4 km/h (6 Bft) 97,10 %
18.02.2022 16:00 10,8 C 10,3 C 5,8 C 69 % 993,6 hPa 0,0 l/m 0,10 h 0,00 h 72 W/m 47,6 km/h (6 Bft) 97,12 %
18.02.2022 17:00 10,8 C 10,0 C 6,5 C 66 % 993,3 hPa 0,0 l/m 0,00 h 0,00 h 23 W/m 51,8 km/h (7 Bft) 95,44 %
18.02.2022 18:00 10,3 C 9,4 C 5,8 C 60 % 995,3 hPa 0,0 l/m 0,00 h 0,00 h 0 W/m 51,4 km/h (7 Bft) 98,80 %
18.02.2022 19:00 9,5 C 8,7 C 5,1 C 61 % 997,5 hPa 0,0 l/m 0,00 h 0,00 h 0 W/m 46,3 km/h (6 Bft) 95,06 %
18.02.2022 20:00 8,9 C 8,1 C 4,5 C 62 % 999,2 hPa 0,0 l/m 0,00 h 0,00 h 0 W/m 43,1 km/h (6 Bft) 97,13 %
18.02.2022 21:00 8,3 C 7,5 C 4,0 C 61 % 1000,8 hPa 0,0 l/m 0,00 h 0,00 h 0 W/m 41,1 km/h (6 Bft) 97,66 %
18.02.2022 22:00 7,6 C 6,7 C 3,1 C 63 % 1002,0 hPa 0,0 l/m 0,00 h 0,00 h 0 W/m 33,4 km/h (5 Bft) 96,50 %
18.02.2022 23:00 7,4 C 6,7 C 2,8 C 62 % 1002,9 hPa 0,0 l/m 0,00 h 0,00 h 0 W/m 34,9 km/h (5 Bft) 98,80 %
19.02.2022 00:00 5,9 C 5,1 C 1,3 C 75 % 1004,5 hPa 0,0 l/m 0,00 h 0,13 h 0 W/m 36,1 km/h (5 Bft) 95,34 %
19.02.2022 01:00 5,8 C 5,0 C 1,7 C 71 % 1005,7 hPa 0,0 l/m 0,00 h 0,00 h 0 W/m 37,0 km/h (5 Bft) 96,80 %
19.02.2022 02:00 5,8 C 5,0 C 1,6 C 70 % 1006,6 hPa 0,0 l/m 0,00 h 0,00 h 0 W/m 32,6 km/h (5 Bft) 98,15 %
19.02.2022 03:00 5,7 C 5,0 C 1,7 C 70 % 1007,8 hPa 0,0 l/m 0,00 h 0,00 h 0 W/m 27,9 km/h (4 Bft) 96,80 %
19.02.2022 04:00 5,5 C 4,8 C 1,1 C 72 % 1008,9 hPa 0,0 l/m 0,00 h 0,00 h 0 W/m 26,0 km/h (4 Bft) 97,21 %
19.02.2022 05:00 5,1 C 4,3 C 0,9 C 74 % 1010,5 hPa 0,0 l/m 0,00 h 0,00 h 0 W/m 24,4 km/h (4 Bft) 98,96 %
19.02.2022 06:00 4,6 C 3,9 C 0,4 C 77 % 1011,5 hPa 0,0 l/m 0,00 h 0,33 h 0 W/m 24,7 km/h (4 Bft) 96,40 %
19.02.2022 07:00 4,3 C 3,6 C 0,0 C 76 % 1012,2 hPa 0,0 l/m 0,00 h 0,00 h 8 W/m 25,6 km/h (4 Bft) 98,29 %
19.02.2022 08:00 4,4 C 4,0 C 0,3 C 76 % 1013,2 hPa 0,0 l/m 0,17 h 0,00 h 42 W/m 24,8 km/h (4 Bft) 96,94 %
19.02.2022 09:00 5,2 C 5,4 C 1,1 C 76 % 1014,3 hPa 0,0 l/m 0,43 h 0,07 h 115 W/m 28,9 km/h (5 Bft) 97,20 %
19.02.2022 10:00 6,5 C 10,2 C 2,4 C 72 % 1014,7 hPa 0,0 l/m 0,90 h 0,00 h 324 W/m 27,3 km/h (4 Bft) 97,41 %
19.02.2022 11:00 7,3 C 10,8 C 5,4 C 69 % 1015,0 hPa 0,0 l/m 0,80 h 0,00 h 335 W/m 23,5 km/h (4 Bft) 99,79 %
19.02.2022 12:00 7,9 C 9,7 C 5,0 C 67 % 1015,3 hPa 0,0 l/m 0,43 h 0,00 h 260 W/m 24,5 km/h (4 Bft) 95,70 %
19.02.2022 13:00 8,4 C 11,8 C 4,7 C 66 % 1015,1 hPa 0,0 l/m 0,37 h 0,00 h 284 W/m 24,5 km/h (4 Bft) 98,01 %
19.02.2022 14:00 8,5 C 9,7 C 4,7 C 63 % 1014,7 hPa 0,0 l/m 0,53 h 0,00 h 251 W/m 24,0 km/h (4 Bft) 98,01 %
19.02.2022 15:00 8,4 C 8,7 C 4,4 C 63 % 1014,2 hPa 0,0 l/m 0,47 h 0,00 h 174 W/m 29,9 km/h (5 Bft) 97,72 %
19.02.2022 16:00 8,1 C 7,6 C 3,9 C 66 % 1013,4 hPa 0,0 l/m 0,00 h 0,00 h 66 W/m 29,0 km/h (5 Bft) 95,45 %
19.02.2022 17:00 7,8 C 7,1 C 3,3 C 66 % 1012,4 hPa 0,0 l/m 0,00 h 0,00 h 15 W/m 25,0 km/h (4 Bft) 98,80 %
19.02.2022 18:00 7,5 C 6,7 C 3,2 C 69 % 1011,2 hPa 0,0 l/m 0,00 h 0,00 h 0 W/m 26,4 km/h (4 Bft) 96,20 %
19.02.2022 19:00 6,8 C 5,9 C 1,6 C 74 % 1010,2 hPa 0,0 l/m 0,00 h 0,97 h 0 W/m 44,3 km/h (6 Bft) 96,77 %
19.02.2022 20:00 5,6 C 4,4 C 0,2 C 85 % 1009,4 hPa 1,2 l/m 0,00 h 0,90 h 0 W/m 40,2 km/h (6 Bft) 97,83 %
19.02.2022 21:00 5,2 C 4,1 C 0,5 C 90 % 1008,0 hPa 1,2 l/m 0,00 h 0,87 h 0 W/m 41,4 km/h (6 Bft) 96,60 %
19.02.2022 22:00 5,6 C 4,6 C 1,0 C 92 % 1007,3 hPa 0,2 l/m 0,00 h 1,00 h 0 W/m 44,6 km/h (6 Bft) 98,20 %
19.02.2022 23:00 6,4 C 5,5 C 1,8 C 92 % 1007,1 hPa 0,4 l/m 0,00 h 0,50 h 0 W/m 35,0 km/h (5 Bft) 98,94 %
20.02.2022 00:00 6,7 C 5,5 C 2,1 C 92 % 1008,0 hPa 1,8 l/m 0,00 h 0,30 h 0 W/m 28,2 km/h (4 Bft) 95,78 %
20.02.2022 01:00 6,4 C 5,2 C 1,4 C 86 % 1009,5 hPa 0,0 l/m 0,00 h 0,00 h 0 W/m 31,6 km/h (5 Bft) 99,50 %
20.02.2022 02:00 5,3 C 4,4 C 1,1 C 86 % 1011,1 hPa 0,0 l/m 0,00 h 0,00 h 0 W/m 28,0 km/h (4 Bft) 97,01 %
20.02.2022 03:00 5,1 C 4,4 C 1,1 C 88 % 1012,1 hPa 0,0 l/m 0,00 h 0,00 h 0 W/m 18,6 km/h (3 Bft) 97,16 %
20.02.2022 04:00 4,9 C 4,2 C 1,1 C 88 % 1012,7 hPa 0,0 l/m 0,00 h 0,00 h 0 W/m 12,8 km/h (3 Bft) 97,50 %
20.02.2022 05:00 4,1 C 3,2 C 0,6 C 88 % 1012,5 hPa 0,0 l/m 0,00 h 0,00 h 0 W/m 6,3 km/h (2 Bft) 98,65 %
20.02.2022 06:00 3,8 C 3,3 C 0,5 C 90 % 1011,5 hPa 0,0 l/m 0,00 h 0,20 h 0 W/m 9,3 km/h (2 Bft) 96,56 %
20.02.2022 07:00 4,4 C 3,7 C 0,7 C 93 % 1010,3 hPa 1,2 l/m 0,00 h 0,97 h 0 W/m 13,4 km/h (3 Bft) 97,29 %
20.02.2022 08:00 6,4 C 5,8 C 2,7 C 96 % 1009,6 hPa 1,0 l/m 0,00 h 0,93 h 8 W/m 26,3 km/h (4 Bft) 97,81 %
20.02.2022 09:00 7,9 C 7,0 C 3,9 C 96 % 1009,2 hPa 0,8 l/m 0,00 h 1,00 h 33 W/m 34,4 km/h (5 Bft) 96,17 %
20.02.2022 10:00 8,4 C 7,4 C 4,7 C 96 % 1008,9 hPa 0,0 l/m 0,00 h 0,83 h 44 W/m 34,2 km/h (5 Bft) 98,44 %
20.02.2022 11:00 8,9 C 8,4 C 5,4 C 96 % 1008,5 hPa 0,0 l/m 0,00 h 0,30 h 98 W/m 31,5 km/h (5 Bft) 98,94 %
20.02.2022 12:00 9,7 C 9,2 C 5,6 C 92 % 1008,1 hPa 0,2 l/m 0,00 h 0,30 h 86 W/m 37,2 km/h (5 Bft) 95,66 %
20.02.2022 13:00 9,8 C 9,3 C 6,0 C 93 % 1007,4 hPa 0,2 l/m 0,00 h 1,00 h 119 W/m 31,0 km/h (5 Bft) 98,73 %
20.02.2022 14:00 9,8 C 8,6 C 6,1 C 94 % 1006,5 hPa 0,6 l/m 0,00 h 1,00 h 77 W/m 36,3 km/h (5 Bft) 98,65 %
20.02.2022 15:00 9,6 C 8,3 C 6,1 C 94 % 1005,4 hPa 1,0 l/m 0,00 h 1,00 h 36 W/m 32,5 km/h (5 Bft) 95,31 %
20.02.2022 16:00 9,8 C 8,7 C 6,1 C 93 % 1004,0 hPa 0,2 l/m 0,00 h 1,00 h 21 W/m 37,5 km/h (5 Bft) 97,75 %
20.02.2022 17:00 9,9 C 8,8 C 6,1 C 92 % 1002,8 hPa 0,2 l/m 0,00 h 1,00 h 8 W/m 40,5 km/h (6 Bft) 97,08 %
20.02.2022 18:00 9,8 C 8,8 C 6,1 C 93 % 1001,7 hPa 0,4 l/m 0,00 h 1,00 h 0 W/m 44,1 km/h (6 Bft) 97,42 %
20.02.2022 19:00 10,1 C 9,1 C 6,1 C 91 % 1000,3 hPa 0,2 l/m 0,00 h 1,00 h 0 W/m 44,7 km/h (6 Bft) 98,22 %
20.02.2022 20:00 10,5 C 9,4 C 6,1 C 89 % 998,7 hPa 0,4 l/m 0,00 h 1,00 h 0 W/m 47,1 km/h (6 Bft) 98,23 %
20.02.2022 21:00 11,0 C 10,1 C 6,1 C 86 % 996,8 hPa 0,0 l/m 0,00 h 0,57 h 0 W/m 51,4 km/h (7 Bft) 96,52 %
20.02.2022 22:00 10,6 C 9,6 C 6,1 C 89 % 995,1 hPa 0,2 l/m 0,00 h 0,83 h 0 W/m 55,7 km/h (7 Bft) 97,99 %
20.02.2022 23:00 9,6 C 8,2 C 5,3 C 90 % 994,2 hPa 2,8 l/m 0,00 h 0,83 h 0 W/m 54,6 km/h (7 Bft) 97,93 %
Min-Datum _ 20.02.22 20.02.22 19.02.22 18.02.22 18.02.22 - - - - 17.02.22 15.02.22
_ Min-Zeit 05:52 05:26 06:10 18:20 14:58 - - - - 19:42 00:02
Minimum _ 3,8 C 2,8 C 0,0 C 58 % 992,8 hPa - - - - 0,0 km/h (0 Bft) 20,00 %
Max-Datum _ 18.02.22 15.02.22 14.02.22 16.02.22 19.02.22 20.02.22 19.02.22 16.02.22 19.02.22 20.02.22 14.02.22
_ Max-Zeit 14:54 13:16 12:20 12:10 12:32 23:46 11:01 17:10 13:04 23:10 00:00
Maximum _ 13,5 C 20,6 C 10,0 C 98 % 1015,4 hPa 2,8 l/m 0,08 h 0,08 h 655 W/m 99,8 km/h
S-SO (10 Bft)
100,00 %
Durchschnitt _ 8,6 C 8,2 C 4,6 C 82 % 1004,9 hPa #29,2 l/m #15:12 h #44:48 h 114 W/m 28,4 km/h (4 Bft) 97,38 %
© 2022 W. Hausmann